Decoded Metar for CYLH (LANSDOWNE HOUSE in ON, CANADA) (IATA:N/A) | Meteo·Mobile Aviation Weather
aviador You're here:

CYLH Decoded Metar

LANSDOWNE HOUSE in ON, CANADA
Report Time2018-11-21 08:00:00
UTC Time2018-11-21 08:40:54
Flight Rules vfr VFR
Wind280° at 05 kt
W.Decomp.*RWY 26: 4.5 kt HW 2.2 kt RCW
W.Rank280° ranks 8
Current wind is below 280° avg. (6.7)
Visibility9999 m
Phenomena:N/A
Clouds:N/A
Expected CloudBase > 800 ft AGL from Temp-Dew spread
CeilingNone
Temp-25°C (ISA -38)
Dew Point-27°C (83% RH)
AAT-30.6°C
QNH1022 hPa
Density Alt-4,429 ft
Elevation833 ft
Report Wrong Elevation
Raw Report
METAR CYLH 210800Z AUTO 28005KT 9SM CLR M25/M27 A3019 RMK SLP258=

Extra information for CYLH:More info

Metar Taf Metar & Taf Last 4 Metars F.Rules Stats Wind Profile Meteogram Temp Stats Airport Information Weather charts Add Link Nearby VenuesMetar ALERT Operation Metar Decoded Social comments